sensor_id;sensor_type;location;lat;lon;timestamp;temperature;humidity
75091;DHT22;63674;48.048;8.306;2023-06-14T00:00:06;6.20;99.90
75091;DHT22;63674;48.048;8.306;2023-06-14T00:02:36;6.20;99.90
75091;DHT22;63674;48.048;8.306;2023-06-14T00:05:05;6.10;99.90
75091;DHT22;63674;48.048;8.306;2023-06-14T00:07:37;6.10;99.90
75091;DHT22;63674;48.048;8.306;2023-06-14T00:10:10;6.10;99.90
75091;DHT22;63674;48.048;8.306;2023-06-14T00:12:39;6.00;99.90
75091;DHT22;63674;48.048;8.306;2023-06-14T00:15:09;5.90;99.90
75091;DHT22;63674;48.048;8.306;2023-06-14T00:17:37;5.80;99.90
75091;DHT22;63674;48.048;8.306;2023-06-14T00:20:08;5.70;99.90
75091;DHT22;63674;48.048;8.306;2023-06-14T00:22:39;5.80;99.90
75091;DHT22;63674;48.048;8.306;2023-06-14T00:25:07;5.80;99.90
75091;DHT22;63674;48.048;8.306;2023-06-14T00:27:55;5.80;99.90
75091;DHT22;63674;48.048;8.306;2023-06-14T00:30:25;5.80;99.90
75091;DHT22;63674;48.048;8.306;2023-06-14T00:32:58;5.70;99.90
75091;DHT22;63674;48.048;8.306;2023-06-14T00:35:27;5.60;99.90
75091;DHT22;63674;48.048;8.306;2023-06-14T00:37:57;5.70;99.90
75091;DHT22;63674;48.048;8.306;2023-06-14T00:40:26;5.60;99.90
75091;DHT22;63674;48.048;8.306;2023-06-14T00:42:55;5.50;99.90
75091;DHT22;63674;48.048;8.306;2023-06-14T00:45:23;5.50;99.90
75091;DHT22;63674;48.048;8.306;2023-06-14T00:47:52;5.40;99.90
75091;DHT22;63674;48.048;8.306;2023-06-14T00:50:22;5.40;99.90
75091;DHT22;63674;48.048;8.306;2023-06-14T00:52:52;5.50;99.90
75091;DHT22;63674;48.048;8.306;2023-06-14T00:55:21;5.50;99.90
75091;DHT22;63674;48.048;8.306;2023-06-14T00:57:50;5.40;99.90
75091;DHT22;63674;48.048;8.306;2023-06-14T01:00:19;5.50;99.90
75091;DHT22;63674;48.048;8.306;2023-06-14T01:02:48;5.40;99.90
75091;DHT22;63674;48.048;8.306;2023-06-14T01:05:17;5.30;99.90
75091;DHT22;63674;48.048;8.306;2023-06-14T01:08:05;5.20;99.90
75091;DHT22;63674;48.048;8.306;2023-06-14T01:10:47;5.30;99.90
75091;DHT22;63674;48.048;8.306;2023-06-14T01:13:24;5.20;99.90
75091;DHT22;63674;48.048;8.306;2023-06-14T01:15:56;5.50;99.90
75091;DHT22;63674;48.048;8.306;2023-06-14T01:18:28;5.20;99.90
75091;DHT22;63674;48.048;8.306;2023-06-14T01:20:57;5.10;99.90
75091;DHT22;63674;48.048;8.306;2023-06-14T01:23:26;5.00;99.90
75091;DHT22;63674;48.048;8.306;2023-06-14T01:26:00;4.90;99.90
75091;DHT22;63674;48.048;8.306;2023-06-14T01:28:30;4.80;99.90
75091;DHT22;63674;48.048;8.306;2023-06-14T01:31:03;4.90;99.90
75091;DHT22;63674;48.048;8.306;2023-06-14T01:33:32;4.90;99.90
75091;DHT22;63674;48.048;8.306;2023-06-14T01:36:20;4.80;99.90
75091;DHT22;63674;48.048;8.306;2023-06-14T01:38:52;4.80;99.90
75091;DHT22;63674;48.048;8.306;2023-06-14T01:41:23;4.80;99.90
75091;DHT22;63674;48.048;8.306;2023-06-14T01:43:54;4.80;99.90
75091;DHT22;63674;48.048;8.306;2023-06-14T01:46:24;4.80;99.90
75091;DHT22;63674;48.048;8.306;2023-06-14T01:48:53;4.70;99.90
75091;DHT22;63674;48.048;8.306;2023-06-14T01:51:22;4.70;99.90
75091;DHT22;63674;48.048;8.306;2023-06-14T01:53:52;4.70;99.90
75091;DHT22;63674;48.048;8.306;2023-06-14T01:56:20;4.70;99.90
75091;DHT22;63674;48.048;8.306;2023-06-14T01:58:49;4.60;99.90
75091;DHT22;63674;48.048;8.306;2023-06-14T02:01:18;4.60;99.90
75091;DHT22;63674;48.048;8.306;2023-06-14T02:03:48;4.60;99.90
75091;DHT22;63674;48.048;8.306;2023-06-14T02:06:18;4.50;99.90
75091;DHT22;63674;48.048;8.306;2023-06-14T02:08:47;4.40;99.90
75091;DHT22;63674;48.048;8.306;2023-06-14T02:11:17;4.40;99.90
75091;DHT22;63674;48.048;8.306;2023-06-14T02:13:45;4.40;99.90
75091;DHT22;63674;48.048;8.306;2023-06-14T02:16:14;4.40;99.90
75091;DHT22;63674;48.048;8.306;2023-06-14T02:18:44;4.30;99.90
75091;DHT22;63674;48.048;8.306;2023-06-14T02:21:13;4.30;99.90
75091;DHT22;63674;48.048;8.306;2023-06-14T02:23:41;4.40;99.90
75091;DHT22;63674;48.048;8.306;2023-06-14T02:26:10;4.30;99.90
75091;DHT22;63674;48.048;8.306;2023-06-14T02:28:40;4.30;99.90
75091;DHT22;63674;48.048;8.306;2023-06-14T02:31:08;4.30;99.90
75091;DHT22;63674;48.048;8.306;2023-06-14T02:33:37;4.30;99.90
75091;DHT22;63674;48.048;8.306;2023-06-14T02:36:06;4.30;99.90
75091;DHT22;63674;48.048;8.306;2023-06-14T02:38:35;4.30;99.90
75091;DHT22;63674;48.048;8.306;2023-06-14T02:41:03;4.20;99.90
75091;DHT22;63674;48.048;8.306;2023-06-14T02:43:32;4.20;99.90
75091;DHT22;63674;48.048;8.306;2023-06-14T02:46:03;4.20;99.90
75091;DHT22;63674;48.048;8.306;2023-06-14T02:48:31;4.20;99.90
75091;DHT22;63674;48.048;8.306;2023-06-14T02:51:00;4.10;99.90
75091;DHT22;63674;48.048;8.306;2023-06-14T02:53:29;4.10;99.90
75091;DHT22;63674;48.048;8.306;2023-06-14T02:55:57;4.10;99.90
75091;DHT22;63674;48.048;8.306;2023-06-14T02:58:26;4.00;99.90
75091;DHT22;63674;48.048;8.306;2023-06-14T03:00:55;4.00;99.90
75091;DHT22;63674;48.048;8.306;2023-06-14T03:03:25;3.90;99.90
75091;DHT22;63674;48.048;8.306;2023-06-14T03:05:54;4.00;99.90
75091;DHT22;63674;48.048;8.306;2023-06-14T03:08:23;4.00;99.90
75091;DHT22;63674;48.048;8.306;2023-06-14T03:10:54;3.90;99.90
75091;DHT22;63674;48.048;8.306;2023-06-14T03:13:23;3.90;99.90
75091;DHT22;63674;48.048;8.306;2023-06-14T03:15:52;3.80;99.90
75091;DHT22;63674;48.048;8.306;2023-06-14T03:18:20;3.80;99.90
75091;DHT22;63674;48.048;8.306;2023-06-14T03:20:54;3.80;99.90
75091;DHT22;63674;48.048;8.306;2023-06-14T03:23:25;3.90;99.90
75091;DHT22;63674;48.048;8.306;2023-06-14T03:25:54;3.80;99.90
75091;DHT22;63674;48.048;8.306;2023-06-14T03:28:23;3.90;99.90
75091;DHT22;63674;48.048;8.306;2023-06-14T03:30:51;3.80;99.90
75091;DHT22;63674;48.048;8.306;2023-06-14T03:33:20;3.80;99.90
75091;DHT22;63674;48.048;8.306;2023-06-14T03:35:48;3.80;99.90
75091;DHT22;63674;48.048;8.306;2023-06-14T03:38:19;3.80;99.90
75091;DHT22;63674;48.048;8.306;2023-06-14T03:40:47;3.80;99.90
75091;DHT22;63674;48.048;8.306;2023-06-14T03:43:16;3.70;99.90
75091;DHT22;63674;48.048;8.306;2023-06-14T03:45:44;3.70;99.90
75091;DHT22;63674;48.048;8.306;2023-06-14T03:48:13;3.70;99.90
75091;DHT22;63674;48.048;8.306;2023-06-14T03:50:42;3.80;99.90
75091;DHT22;63674;48.048;8.306;2023-06-14T03:53:11;3.70;99.90
75091;DHT22;63674;48.048;8.306;2023-06-14T03:55:41;3.70;99.90
75091;DHT22;63674;48.048;8.306;2023-06-14T03:58:13;3.80;99.90
75091;DHT22;63674;48.048;8.306;2023-06-14T04:00:41;3.80;99.90
75091;DHT22;63674;48.048;8.306;2023-06-14T04:03:10;3.80;99.90
75091;DHT22;63674;48.048;8.306;2023-06-14T04:05:40;3.80;99.90
75091;DHT22;63674;48.048;8.306;2023-06-14T04:08:10;3.90;99.90
75091;DHT22;63674;48.048;8.306;2023-06-14T04:10:43;3.80;99.90
75091;DHT22;63674;48.048;8.306;2023-06-14T04:13:11;3.80;99.90
75091;DHT22;63674;48.048;8.306;2023-06-14T04:15:40;3.80;99.90
75091;DHT22;63674;48.048;8.306;2023-06-14T04:18:10;3.90;99.90
75091;DHT22;63674;48.048;8.306;2023-06-14T04:20:39;3.90;99.90
75091;DHT22;63674;48.048;8.306;2023-06-14T04:23:12;3.90;99.90
75091;DHT22;63674;48.048;8.306;2023-06-14T04:25:42;4.00;99.90
75091;DHT22;63674;48.048;8.306;2023-06-14T04:28:12;4.00;99.90
75091;DHT22;63674;48.048;8.306;2023-06-14T04:30:42;4.00;99.90
75091;DHT22;63674;48.048;8.306;2023-06-14T04:33:11;4.00;99.90
75091;DHT22;63674;48.048;8.306;2023-06-14T04:35:40;4.10;99.90
75091;DHT22;63674;48.048;8.306;2023-06-14T04:38:09;4.10;99.90
75091;DHT22;63674;48.048;8.306;2023-06-14T04:40:38;4.10;99.90
75091;DHT22;63674;48.048;8.306;2023-06-14T04:43:11;4.10;99.90
75091;DHT22;63674;48.048;8.306;2023-06-14T04:45:40;4.20;99.90
75091;DHT22;63674;48.048;8.306;2023-06-14T04:48:12;4.30;99.90
75091;DHT22;63674;48.048;8.306;2023-06-14T04:50:41;4.30;99.90
75091;DHT22;63674;48.048;8.306;2023-06-14T04:53:10;4.30;99.90
75091;DHT22;63674;48.048;8.306;2023-06-14T04:55:39;4.30;99.90
75091;DHT22;63674;48.048;8.306;2023-06-14T04:58:13;4.30;99.90
75091;DHT22;63674;48.048;8.306;2023-06-14T05:00:41;4.40;99.90
75091;DHT22;63674;48.048;8.306;2023-06-14T05:03:10;4.40;99.90
75091;DHT22;63674;48.048;8.306;2023-06-14T05:05:40;4.50;99.90
75091;DHT22;63674;48.048;8.306;2023-06-14T05:08:09;4.50;99.90
75091;DHT22;63674;48.048;8.306;2023-06-14T05:10:38;4.60;99.90
75091;DHT22;63674;48.048;8.306;2023-06-14T05:13:06;4.60;99.90
75091;DHT22;63674;48.048;8.306;2023-06-14T05:15:36;4.70;99.90
75091;DHT22;63674;48.048;8.306;2023-06-14T05:18:05;4.80;99.90
75091;DHT22;63674;48.048;8.306;2023-06-14T05:20:35;4.90;99.90
75091;DHT22;63674;48.048;8.306;2023-06-14T05:23:05;4.90;99.90
75091;DHT22;63674;48.048;8.306;2023-06-14T05:25:33;4.90;99.90
75091;DHT22;63674;48.048;8.306;2023-06-14T05:28:02;5.00;99.90
75091;DHT22;63674;48.048;8.306;2023-06-14T05:30:32;5.10;99.90
75091;DHT22;63674;48.048;8.306;2023-06-14T05:33:02;5.30;99.90
75091;DHT22;63674;48.048;8.306;2023-06-14T05:35:31;5.40;99.90
75091;DHT22;63674;48.048;8.306;2023-06-14T05:37:59;5.50;99.90
75091;DHT22;63674;48.048;8.306;2023-06-14T05:40:28;5.60;99.90
75091;DHT22;63674;48.048;8.306;2023-06-14T05:42:56;5.80;99.90
75091;DHT22;63674;48.048;8.306;2023-06-14T05:45:25;5.90;99.90
75091;DHT22;63674;48.048;8.306;2023-06-14T05:47:54;6.00;99.90
75091;DHT22;63674;48.048;8.306;2023-06-14T05:50:24;6.10;99.90
75091;DHT22;63674;48.048;8.306;2023-06-14T05:52:53;6.20;99.90
75091;DHT22;63674;48.048;8.306;2023-06-14T05:55:22;6.40;99.90
75091;DHT22;63674;48.048;8.306;2023-06-14T05:57:51;6.50;99.90
75091;DHT22;63674;48.048;8.306;2023-06-14T06:00:20;6.70;99.90
75091;DHT22;63674;48.048;8.306;2023-06-14T06:02:49;6.90;99.90
75091;DHT22;63674;48.048;8.306;2023-06-14T06:05:18;7.10;99.90
75091;DHT22;63674;48.048;8.306;2023-06-14T06:07:48;7.30;99.90
75091;DHT22;63674;48.048;8.306;2023-06-14T06:10:17;7.50;99.90
75091;DHT22;63674;48.048;8.306;2023-06-14T06:12:45;7.70;99.90
75091;DHT22;63674;48.048;8.306;2023-06-14T06:15:15;8.00;99.90
75091;DHT22;63674;48.048;8.306;2023-06-14T06:17:44;8.30;99.90
75091;DHT22;63674;48.048;8.306;2023-06-14T06:20:22;8.70;99.90
75091;DHT22;63674;48.048;8.306;2023-06-14T06:22:57;9.10;99.90
75091;DHT22;63674;48.048;8.306;2023-06-14T06:25:26;9.60;99.90
75091;DHT22;63674;48.048;8.306;2023-06-14T06:27:55;10.10;99.90
75091;DHT22;63674;48.048;8.306;2023-06-14T06:30:24;10.50;99.90
75091;DHT22;63674;48.048;8.306;2023-06-14T06:32:53;11.20;99.90
75091;DHT22;63674;48.048;8.306;2023-06-14T06:35:23;11.60;99.90
75091;DHT22;63674;48.048;8.306;2023-06-14T06:37:51;12.00;99.90
75091;DHT22;63674;48.048;8.306;2023-06-14T06:40:22;12.40;99.90
75091;DHT22;63674;48.048;8.306;2023-06-14T06:42:51;12.90;99.90
75091;DHT22;63674;48.048;8.306;2023-06-14T06:45:20;13.40;99.90
75091;DHT22;63674;48.048;8.306;2023-06-14T06:47:51;13.80;99.90
75091;DHT22;63674;48.048;8.306;2023-06-14T06:50:20;14.40;99.90
75091;DHT22;63674;48.048;8.306;2023-06-14T06:52:52;14.70;93.50
75091;DHT22;63674;48.048;8.306;2023-06-14T06:55:23;15.10;94.70
75091;DHT22;63674;48.048;8.306;2023-06-14T06:57:51;15.50;87.60
75091;DHT22;63674;48.048;8.306;2023-06-14T07:00:21;15.80;84.30
75091;DHT22;63674;48.048;8.306;2023-06-14T07:02:52;16.10;94.00
75091;DHT22;63674;48.048;8.306;2023-06-14T07:05:22;16.60;80.20
75091;DHT22;63674;48.048;8.306;2023-06-14T07:07:51;17.20;69.70
75091;DHT22;63674;48.048;8.306;2023-06-14T07:10:25;17.30;73.80
75091;DHT22;63674;48.048;8.306;2023-06-14T07:12:54;17.50;70.70
75091;DHT22;63674;48.048;8.306;2023-06-14T07:15:22;17.90;87.70
75091;DHT22;63674;48.048;8.306;2023-06-14T07:17:51;18.70;59.90
75091;DHT22;63674;48.048;8.306;2023-06-14T07:20:20;19.30;71.30
75091;DHT22;63674;48.048;8.306;2023-06-14T07:22:49;19.80;52.80
75091;DHT22;63674;48.048;8.306;2023-06-14T07:25:18;20.20;65.90
75091;DHT22;63674;48.048;8.306;2023-06-14T07:27:48;20.30;46.30
75091;DHT22;63674;48.048;8.306;2023-06-14T07:30:17;20.50;48.70
75091;DHT22;63674;48.048;8.306;2023-06-14T07:32:46;20.90;52.70
75091;DHT22;63674;48.048;8.306;2023-06-14T07:35:15;21.10;46.00
75091;DHT22;63674;48.048;8.306;2023-06-14T07:37:44;21.40;49.20
75091;DHT22;63674;48.048;8.306;2023-06-14T07:40:14;21.40;45.30
75091;DHT22;63674;48.048;8.306;2023-06-14T07:42:42;21.60;38.50
75091;DHT22;63674;48.048;8.306;2023-06-14T07:45:13;21.80;39.90
75091;DHT22;63674;48.048;8.306;2023-06-14T07:47:43;22.00;40.10
75091;DHT22;63674;48.048;8.306;2023-06-14T07:50:12;21.90;41.90
75091;DHT22;63674;48.048;8.306;2023-06-14T07:52:40;21.80;39.80
75091;DHT22;63674;48.048;8.306;2023-06-14T07:55:09;22.10;37.70
75091;DHT22;63674;48.048;8.306;2023-06-14T07:57:38;22.00;40.10
75091;DHT22;63674;48.048;8.306;2023-06-14T08:00:07;22.20;39.30
75091;DHT22;63674;48.048;8.306;2023-06-14T08:02:39;22.50;40.40
75091;DHT22;63674;48.048;8.306;2023-06-14T08:05:09;22.70;37.40
75091;DHT22;63674;48.048;8.306;2023-06-14T08:07:39;23.10;37.00
75091;DHT22;63674;48.048;8.306;2023-06-14T08:10:09;23.40;34.90
75091;DHT22;63674;48.048;8.306;2023-06-14T08:12:37;23.40;35.00
75091;DHT22;63674;48.048;8.306;2023-06-14T08:15:06;23.20;35.60
75091;DHT22;63674;48.048;8.306;2023-06-14T08:17:42;23.50;32.80
75091;DHT22;63674;48.048;8.306;2023-06-14T08:20:12;23.70;32.90
75091;DHT22;63674;48.048;8.306;2023-06-14T08:22:43;23.70;32.00
75091;DHT22;63674;48.048;8.306;2023-06-14T08:25:15;23.80;32.30
75091;DHT22;63674;48.048;8.306;2023-06-14T08:27:44;23.50;29.70
75091;DHT22;63674;48.048;8.306;2023-06-14T08:30:14;23.80;31.30
75091;DHT22;63674;48.048;8.306;2023-06-14T08:32:46;23.90;28.80
75091;DHT22;63674;48.048;8.306;2023-06-14T08:35:28;24.10;31.00
75091;DHT22;63674;48.048;8.306;2023-06-14T08:37:57;24.30;29.00
75091;DHT22;63674;48.048;8.306;2023-06-14T08:40:27;24.60;30.60
75091;DHT22;63674;48.048;8.306;2023-06-14T08:42:58;24.50;28.30
75091;DHT22;63674;48.048;8.306;2023-06-14T08:45:27;24.20;27.80
75091;DHT22;63674;48.048;8.306;2023-06-14T08:47:59;24.20;28.40
75091;DHT22;63674;48.048;8.306;2023-06-14T08:50:28;24.40;27.90
75091;DHT22;63674;48.048;8.306;2023-06-14T08:53:01;24.30;27.50
75091;DHT22;63674;48.048;8.306;2023-06-14T08:55:32;24.30;28.00
75091;DHT22;63674;48.048;8.306;2023-06-14T08:58:04;24.20;28.20
75091;DHT22;63674;48.048;8.306;2023-06-14T09:00:33;24.30;29.10
75091;DHT22;63674;48.048;8.306;2023-06-14T09:03:06;24.50;28.20
75091;DHT22;63674;48.048;8.306;2023-06-14T09:05:40;24.30;28.20
75091;DHT22;63674;48.048;8.306;2023-06-14T09:08:09;23.90;28.00
75091;DHT22;63674;48.048;8.306;2023-06-14T09:10:39;24.30;28.50
75091;DHT22;63674;48.048;8.306;2023-06-14T09:13:08;24.40;29.20
75091;DHT22;63674;48.048;8.306;2023-06-14T09:15:37;24.60;29.50
75091;DHT22;63674;48.048;8.306;2023-06-14T09:18:07;24.40;28.30
75091;DHT22;63674;48.048;8.306;2023-06-14T09:20:36;24.40;29.70
75091;DHT22;63674;48.048;8.306;2023-06-14T09:23:05;24.60;29.10
75091;DHT22;63674;48.048;8.306;2023-06-14T09:25:42;24.90;28.80
75091;DHT22;63674;48.048;8.306;2023-06-14T09:28:12;25.10;29.50
75091;DHT22;63674;48.048;8.306;2023-06-14T09:30:41;25.00;26.40
75091;DHT22;63674;48.048;8.306;2023-06-14T09:33:16;25.10;26.80
75091;DHT22;63674;48.048;8.306;2023-06-14T09:35:46;25.00;27.20
75091;DHT22;63674;48.048;8.306;2023-06-14T09:38:14;24.90;27.80
75091;DHT22;63674;48.048;8.306;2023-06-14T09:40:43;24.90;27.40
75091;DHT22;63674;48.048;8.306;2023-06-14T09:43:11;24.40;28.10
75091;DHT22;63674;48.048;8.306;2023-06-14T09:45:40;24.50;26.80
75091;DHT22;63674;48.048;8.306;2023-06-14T09:48:14;24.70;27.70
75091;DHT22;63674;48.048;8.306;2023-06-14T09:50:46;24.70;25.60
75091;DHT22;63674;48.048;8.306;2023-06-14T09:53:16;24.60;28.60
75091;DHT22;63674;48.048;8.306;2023-06-14T09:55:49;25.00;29.70
75091;DHT22;63674;48.048;8.306;2023-06-14T09:58:20;24.60;26.00
75091;DHT22;63674;48.048;8.306;2023-06-14T10:00:51;24.70;28.70
75091;DHT22;63674;48.048;8.306;2023-06-14T10:03:27;24.60;28.90
75091;DHT22;63674;48.048;8.306;2023-06-14T10:06:16;24.80;28.40
75091;DHT22;63674;48.048;8.306;2023-06-14T10:08:46;24.80;28.20
75091;DHT22;63674;48.048;8.306;2023-06-14T10:11:16;25.00;29.00
75091;DHT22;63674;48.048;8.306;2023-06-14T10:13:45;25.00;26.90
75091;DHT22;63674;48.048;8.306;2023-06-14T10:16:24;24.70;26.90
75091;DHT22;63674;48.048;8.306;2023-06-14T10:19:04;24.80;27.20
75091;DHT22;63674;48.048;8.306;2023-06-14T10:21:43;24.60;26.00
75091;DHT22;63674;48.048;8.306;2023-06-14T10:24:27;24.40;28.80
75091;DHT22;63674;48.048;8.306;2023-06-14T10:26:58;24.70;29.00
75091;DHT22;63674;48.048;8.306;2023-06-14T10:29:28;25.20;28.40
75091;DHT22;63674;48.048;8.306;2023-06-14T10:32:00;25.30;28.00
75091;DHT22;63674;48.048;8.306;2023-06-14T10:34:32;25.00;26.00
75091;DHT22;63674;48.048;8.306;2023-06-14T10:37:03;24.90;27.70
75091;DHT22;63674;48.048;8.306;2023-06-14T10:39:39;25.00;27.90
75091;DHT22;63674;48.048;8.306;2023-06-14T10:42:09;24.80;27.80
75091;DHT22;63674;48.048;8.306;2023-06-14T10:44:42;24.90;28.20
75091;DHT22;63674;48.048;8.306;2023-06-14T10:47:22;24.80;27.30
75091;DHT22;63674;48.048;8.306;2023-06-14T10:49:55;24.90;27.10
75091;DHT22;63674;48.048;8.306;2023-06-14T10:52:26;25.20;28.10
75091;DHT22;63674;48.048;8.306;2023-06-14T10:57:40;25.20;26.40
75091;DHT22;63674;48.048;8.306;2023-06-14T11:00:20;25.10;25.00
75091;DHT22;63674;48.048;8.306;2023-06-14T11:06:15;24.10;27.10
75091;DHT22;63674;48.048;8.306;2023-06-14T11:09:16;24.70;29.40
75091;DHT22;63674;48.048;8.306;2023-06-14T11:11:54;25.10;26.00
75091;DHT22;63674;48.048;8.306;2023-06-14T11:14:24;25.00;26.00
75091;DHT22;63674;48.048;8.306;2023-06-14T11:16:53;24.90;26.90
75091;DHT22;63674;48.048;8.306;2023-06-14T11:19:22;25.20;26.60
75091;DHT22;63674;48.048;8.306;2023-06-14T11:21:53;25.40;26.60
75091;DHT22;63674;48.048;8.306;2023-06-14T11:24:21;25.50;27.60
75091;DHT22;63674;48.048;8.306;2023-06-14T11:26:50;25.70;28.00
75091;DHT22;63674;48.048;8.306;2023-06-14T11:29:20;25.70;27.80
75091;DHT22;63674;48.048;8.306;2023-06-14T11:31:49;25.30;26.10
75091;DHT22;63674;48.048;8.306;2023-06-14T11:34:18;25.20;26.60
75091;DHT22;63674;48.048;8.306;2023-06-14T11:36:47;25.20;26.70
75091;DHT22;63674;48.048;8.306;2023-06-14T11:39:17;25.40;28.90
75091;DHT22;63674;48.048;8.306;2023-06-14T11:41:45;25.30;27.80
75091;DHT22;63674;48.048;8.306;2023-06-14T11:44:14;25.30;27.70
75091;DHT22;63674;48.048;8.306;2023-06-14T11:46:43;25.50;28.20
75091;DHT22;63674;48.048;8.306;2023-06-14T11:49:12;25.40;27.90
75091;DHT22;63674;48.048;8.306;2023-06-14T11:51:43;25.40;27.30
75091;DHT22;63674;48.048;8.306;2023-06-14T11:54:12;25.00;27.50
75091;DHT22;63674;48.048;8.306;2023-06-14T11:56:42;25.40;29.00
75091;DHT22;63674;48.048;8.306;2023-06-14T11:59:13;25.70;28.60
75091;DHT22;63674;48.048;8.306;2023-06-14T12:01:43;25.70;28.40
75091;DHT22;63674;48.048;8.306;2023-06-14T12:04:12;25.90;27.90
75091;DHT22;63674;48.048;8.306;2023-06-14T12:06:41;25.60;26.90
75091;DHT22;63674;48.048;8.306;2023-06-14T12:09:10;25.50;27.60
75091;DHT22;63674;48.048;8.306;2023-06-14T12:11:45;25.30;27.70
75091;DHT22;63674;48.048;8.306;2023-06-14T12:14:14;25.50;29.10
75091;DHT22;63674;48.048;8.306;2023-06-14T12:16:43;25.60;28.20
75091;DHT22;63674;48.048;8.306;2023-06-14T12:19:14;25.70;28.60
75091;DHT22;63674;48.048;8.306;2023-06-14T12:21:46;25.70;27.70
75091;DHT22;63674;48.048;8.306;2023-06-14T12:24:16;25.70;28.40
75091;DHT22;63674;48.048;8.306;2023-06-14T12:26:46;25.80;28.70
75091;DHT22;63674;48.048;8.306;2023-06-14T12:29:15;25.50;26.20
75091;DHT22;63674;48.048;8.306;2023-06-14T12:31:44;25.40;28.70
75091;DHT22;63674;48.048;8.306;2023-06-14T12:34:12;25.60;25.70
75091;DHT22;63674;48.048;8.306;2023-06-14T12:36:41;25.20;25.80
75091;DHT22;63674;48.048;8.306;2023-06-14T12:39:12;25.30;26.90
75091;DHT22;63674;48.048;8.306;2023-06-14T12:41:41;25.30;28.30
75091;DHT22;63674;48.048;8.306;2023-06-14T12:44:12;25.60;27.90
75091;DHT22;63674;48.048;8.306;2023-06-14T12:46:42;25.80;27.40
75091;DHT22;63674;48.048;8.306;2023-06-14T12:49:11;25.90;26.50
75091;DHT22;63674;48.048;8.306;2023-06-14T12:51:41;25.70;27.00
75091;DHT22;63674;48.048;8.306;2023-06-14T12:54:09;25.60;27.00
75091;DHT22;63674;48.048;8.306;2023-06-14T12:56:39;25.70;27.50
75091;DHT22;63674;48.048;8.306;2023-06-14T12:59:08;25.70;25.20
75091;DHT22;63674;48.048;8.306;2023-06-14T13:01:39;25.70;26.10
75091;DHT22;63674;48.048;8.306;2023-06-14T13:04:08;25.70;26.60
75091;DHT22;63674;48.048;8.306;2023-06-14T13:06:37;25.80;26.60
75091;DHT22;63674;48.048;8.306;2023-06-14T13:09:06;25.60;27.40
75091;DHT22;63674;48.048;8.306;2023-06-14T13:11:36;25.00;26.60
75091;DHT22;63674;48.048;8.306;2023-06-14T13:14:05;25.10;26.70
75091;DHT22;63674;48.048;8.306;2023-06-14T13:16:52;25.20;28.90
75091;DHT22;63674;48.048;8.306;2023-06-14T13:19:22;25.50;25.60
75091;DHT22;63674;48.048;8.306;2023-06-14T13:21:51;24.80;27.90
75091;DHT22;63674;48.048;8.306;2023-06-14T13:24:20;24.80;28.60
75091;DHT22;63674;48.048;8.306;2023-06-14T13:26:48;25.20;27.90
75091;DHT22;63674;48.048;8.306;2023-06-14T13:29:17;25.30;27.30
75091;DHT22;63674;48.048;8.306;2023-06-14T13:31:45;25.50;27.40
75091;DHT22;63674;48.048;8.306;2023-06-14T13:34:16;25.70;27.50
75091;DHT22;63674;48.048;8.306;2023-06-14T13:36:44;25.70;25.90
75091;DHT22;63674;48.048;8.306;2023-06-14T13:39:13;25.70;27.90
75091;DHT22;63674;48.048;8.306;2023-06-14T13:41:42;25.80;26.40
75091;DHT22;63674;48.048;8.306;2023-06-14T13:44:10;26.00;27.90
75091;DHT22;63674;48.048;8.306;2023-06-14T13:46:43;26.00;27.30
75091;DHT22;63674;48.048;8.306;2023-06-14T13:49:11;26.10;27.40
75091;DHT22;63674;48.048;8.306;2023-06-14T13:51:41;26.20;26.20
75091;DHT22;63674;48.048;8.306;2023-06-14T13:54:13;26.00;27.90
75091;DHT22;63674;48.048;8.306;2023-06-14T13:56:42;26.00;26.40
75091;DHT22;63674;48.048;8.306;2023-06-14T13:59:10;25.80;26.80
75091;DHT22;63674;48.048;8.306;2023-06-14T14:01:39;26.10;26.90
75091;DHT22;63674;48.048;8.306;2023-06-14T14:04:08;26.10;27.10
75091;DHT22;63674;48.048;8.306;2023-06-14T14:06:37;25.90;27.30
75091;DHT22;63674;48.048;8.306;2023-06-14T14:09:08;26.10;27.60
75091;DHT22;63674;48.048;8.306;2023-06-14T14:11:37;26.10;26.70
75091;DHT22;63674;48.048;8.306;2023-06-14T14:14:07;26.20;28.40
75091;DHT22;63674;48.048;8.306;2023-06-14T14:16:36;26.20;26.50
75091;DHT22;63674;48.048;8.306;2023-06-14T14:19:06;26.10;27.40
75091;DHT22;63674;48.048;8.306;2023-06-14T14:21:35;26.20;27.10
75091;DHT22;63674;48.048;8.306;2023-06-14T14:24:07;26.30;26.40
75091;DHT22;63674;48.048;8.306;2023-06-14T14:26:36;26.00;25.50
75091;DHT22;63674;48.048;8.306;2023-06-14T14:29:04;25.80;26.10
75091;DHT22;63674;48.048;8.306;2023-06-14T14:31:33;25.90;28.00
75091;DHT22;63674;48.048;8.306;2023-06-14T14:34:02;25.80;26.70
75091;DHT22;63674;48.048;8.306;2023-06-14T14:36:31;25.80;27.20
75091;DHT22;63674;48.048;8.306;2023-06-14T14:39:00;25.90;28.10
75091;DHT22;63674;48.048;8.306;2023-06-14T14:41:30;25.90;27.60
75091;DHT22;63674;48.048;8.306;2023-06-14T14:43:58;26.00;27.30
75091;DHT22;63674;48.048;8.306;2023-06-14T14:46:27;26.00;27.90
75091;DHT22;63674;48.048;8.306;2023-06-14T14:48:56;25.80;27.20
75091;DHT22;63674;48.048;8.306;2023-06-14T14:51:24;25.50;26.20
75091;DHT22;63674;48.048;8.306;2023-06-14T14:53:53;24.90;27.40
75091;DHT22;63674;48.048;8.306;2023-06-14T14:56:22;24.30;26.80
75091;DHT22;63674;48.048;8.306;2023-06-14T14:58:54;23.90;28.40
75091;DHT22;63674;48.048;8.306;2023-06-14T15:01:23;23.60;29.20
75091;DHT22;63674;48.048;8.306;2023-06-14T15:03:51;23.70;29.50
75091;DHT22;63674;48.048;8.306;2023-06-14T15:06:26;23.80;28.60
75091;DHT22;63674;48.048;8.306;2023-06-14T15:08:55;23.60;29.10
75091;DHT22;63674;48.048;8.306;2023-06-14T15:11:24;23.60;29.40
75091;DHT22;63674;48.048;8.306;2023-06-14T15:13:54;23.70;29.20
75091;DHT22;63674;48.048;8.306;2023-06-14T15:16:23;23.90;29.90
75091;DHT22;63674;48.048;8.306;2023-06-14T15:18:51;23.90;29.30
75091;DHT22;63674;48.048;8.306;2023-06-14T15:21:20;23.80;29.20
75091;DHT22;63674;48.048;8.306;2023-06-14T15:23:49;23.60;29.00
75091;DHT22;63674;48.048;8.306;2023-06-14T15:26:20;23.30;29.20
75091;DHT22;63674;48.048;8.306;2023-06-14T15:28:51;23.00;30.30
75091;DHT22;63674;48.048;8.306;2023-06-14T15:31:21;23.20;32.00
75091;DHT22;63674;48.048;8.306;2023-06-14T15:33:54;23.50;30.40
75091;DHT22;63674;48.048;8.306;2023-06-14T15:36:24;23.80;30.40
75091;DHT22;63674;48.048;8.306;2023-06-14T15:38:53;23.70;29.70
75091;DHT22;63674;48.048;8.306;2023-06-14T15:41:21;23.80;29.90
75091;DHT22;63674;48.048;8.306;2023-06-14T15:43:50;23.90;28.80
75091;DHT22;63674;48.048;8.306;2023-06-14T15:46:22;23.70;29.30
75091;DHT22;63674;48.048;8.306;2023-06-14T15:48:50;23.50;29.40
75091;DHT22;63674;48.048;8.306;2023-06-14T15:51:19;23.20;29.00
75091;DHT22;63674;48.048;8.306;2023-06-14T15:53:48;23.00;30.40
75091;DHT22;63674;48.048;8.306;2023-06-14T15:56:17;23.00;30.70
75091;DHT22;63674;48.048;8.306;2023-06-14T15:58:46;23.00;30.30
75091;DHT22;63674;48.048;8.306;2023-06-14T16:01:18;22.90;30.70